sensor_id;sensor_type;location;lat;lon;timestamp;temperature;humidity
2663;DHT22;49701;48.072;7.800;2024-03-02T00:01:23;3.90;99.90
2663;DHT22;49701;48.072;7.800;2024-03-02T00:03:48;3.90;99.90
2663;DHT22;49701;48.072;7.800;2024-03-02T00:06:14;3.90;99.90
2663;DHT22;49701;48.072;7.800;2024-03-02T00:08:40;3.90;99.90
2663;DHT22;49701;48.072;7.800;2024-03-02T00:11:05;3.90;99.90
2663;DHT22;49701;48.072;7.800;2024-03-02T00:13:31;3.90;99.90
2663;DHT22;49701;48.072;7.800;2024-03-02T00:15:57;3.90;99.90
2663;DHT22;49701;48.072;7.800;2024-03-02T00:18:27;3.90;99.90
2663;DHT22;49701;48.072;7.800;2024-03-02T00:20:56;3.80;99.90
2663;DHT22;49701;48.072;7.800;2024-03-02T00:23:22;3.80;99.90
2663;DHT22;49701;48.072;7.800;2024-03-02T00:25:57;3.80;99.90
2663;DHT22;49701;48.072;7.800;2024-03-02T00:28:24;3.80;99.90
2663;DHT22;49701;48.072;7.800;2024-03-02T00:30:57;3.80;99.90
2663;DHT22;49701;48.072;7.800;2024-03-02T00:33:23;3.80;99.90
2663;DHT22;49701;48.072;7.800;2024-03-02T00:35:49;3.70;99.90
2663;DHT22;49701;48.072;7.800;2024-03-02T00:38:15;3.70;99.90
2663;DHT22;49701;48.072;7.800;2024-03-02T00:40:44;3.60;99.90
2663;DHT22;49701;48.072;7.800;2024-03-02T00:45:58;3.60;99.90
2663;DHT22;49701;48.072;7.800;2024-03-02T00:48:24;3.60;99.90
2663;DHT22;49701;48.072;7.800;2024-03-02T00:50:51;3.60;99.90
2663;DHT22;49701;48.072;7.800;2024-03-02T00:53:17;3.50;99.90
2663;DHT22;49701;48.072;7.800;2024-03-02T00:55:43;3.50;99.90
2663;DHT22;49701;48.072;7.800;2024-03-02T00:58:12;3.50;99.90
2663;DHT22;49701;48.072;7.800;2024-03-02T01:00:38;3.50;99.90
2663;DHT22;49701;48.072;7.800;2024-03-02T01:03:03;3.50;99.90
2663;DHT22;49701;48.072;7.800;2024-03-02T01:05:29;3.40;99.90
2663;DHT22;49701;48.072;7.800;2024-03-02T01:07:54;3.40;99.90
2663;DHT22;49701;48.072;7.800;2024-03-02T01:10:20;3.30;99.90
2663;DHT22;49701;48.072;7.800;2024-03-02T01:12:45;3.20;99.90
2663;DHT22;49701;48.072;7.800;2024-03-02T01:15:11;3.20;99.90
2663;DHT22;49701;48.072;7.800;2024-03-02T01:17:36;3.20;99.90
2663;DHT22;49701;48.072;7.800;2024-03-02T01:20:02;3.20;99.90
2663;DHT22;49701;48.072;7.800;2024-03-02T01:22:28;3.10;99.90
2663;DHT22;49701;48.072;7.800;2024-03-02T01:24:53;3.10;99.90
2663;DHT22;49701;48.072;7.800;2024-03-02T01:27:19;3.10;99.90
2663;DHT22;49701;48.072;7.800;2024-03-02T01:29:45;3.10;99.90
2663;DHT22;49701;48.072;7.800;2024-03-02T01:32:10;3.10;99.90
2663;DHT22;49701;48.072;7.800;2024-03-02T01:34:36;3.10;99.90
2663;DHT22;49701;48.072;7.800;2024-03-02T01:37:01;3.10;99.90
2663;DHT22;49701;48.072;7.800;2024-03-02T01:39:27;3.10;99.90
2663;DHT22;49701;48.072;7.800;2024-03-02T01:41:52;3.00;99.90
2663;DHT22;49701;48.072;7.800;2024-03-02T01:44:18;3.00;99.90
2663;DHT22;49701;48.072;7.800;2024-03-02T01:46:43;3.00;99.90
2663;DHT22;49701;48.072;7.800;2024-03-02T01:49:09;2.90;99.90
2663;DHT22;49701;48.072;7.800;2024-03-02T01:51:34;2.90;99.90
2663;DHT22;49701;48.072;7.800;2024-03-02T01:54:00;2.90;99.90
2663;DHT22;49701;48.072;7.800;2024-03-02T01:56:25;2.90;99.90
2663;DHT22;49701;48.072;7.800;2024-03-02T01:58:51;2.90;99.90
2663;DHT22;49701;48.072;7.800;2024-03-02T02:01:17;2.80;99.90
2663;DHT22;49701;48.072;7.800;2024-03-02T02:03:43;2.80;99.90
2663;DHT22;49701;48.072;7.800;2024-03-02T02:06:09;2.80;99.90
2663;DHT22;49701;48.072;7.800;2024-03-02T02:08:36;2.70;99.90
2663;DHT22;49701;48.072;7.800;2024-03-02T02:11:02;2.70;99.90
2663;DHT22;49701;48.072;7.800;2024-03-02T02:13:27;2.70;99.90
2663;DHT22;49701;48.072;7.800;2024-03-02T02:15:53;2.70;99.90
2663;DHT22;49701;48.072;7.800;2024-03-02T02:18:19;2.70;99.90
2663;DHT22;49701;48.072;7.800;2024-03-02T02:20:44;2.60;99.90
2663;DHT22;49701;48.072;7.800;2024-03-02T02:23:10;2.60;99.90
2663;DHT22;49701;48.072;7.800;2024-03-02T02:25:35;2.60;99.90
2663;DHT22;49701;48.072;7.800;2024-03-02T02:28:01;2.50;99.90
2663;DHT22;49701;48.072;7.800;2024-03-02T02:30:30;2.50;99.90
2663;DHT22;49701;48.072;7.800;2024-03-02T02:32:56;2.50;99.90
2663;DHT22;49701;48.072;7.800;2024-03-02T02:35:22;2.50;99.90
2663;DHT22;49701;48.072;7.800;2024-03-02T02:37:49;2.50;99.90
2663;DHT22;49701;48.072;7.800;2024-03-02T02:40:15;2.50;99.90
2663;DHT22;49701;48.072;7.800;2024-03-02T02:42:41;2.50;99.90
2663;DHT22;49701;48.072;7.800;2024-03-02T02:45:06;2.40;99.90
2663;DHT22;49701;48.072;7.800;2024-03-02T02:47:32;2.40;99.90
2663;DHT22;49701;48.072;7.800;2024-03-02T02:50:03;2.40;99.90
2663;DHT22;49701;48.072;7.800;2024-03-02T02:52:33;2.40;99.90
2663;DHT22;49701;48.072;7.800;2024-03-02T02:54:59;2.40;99.90
2663;DHT22;49701;48.072;7.800;2024-03-02T02:57:24;2.40;99.90
2663;DHT22;49701;48.072;7.800;2024-03-02T02:59:50;2.40;99.90
2663;DHT22;49701;48.072;7.800;2024-03-02T03:02:15;2.40;99.90
2663;DHT22;49701;48.072;7.800;2024-03-02T03:04:41;2.30;99.90
2663;DHT22;49701;48.072;7.800;2024-03-02T03:07:07;2.30;99.90
2663;DHT22;49701;48.072;7.800;2024-03-02T03:09:32;2.30;99.90
2663;DHT22;49701;48.072;7.800;2024-03-02T03:11:58;2.30;99.90
2663;DHT22;49701;48.072;7.800;2024-03-02T03:14:23;2.20;99.90
2663;DHT22;49701;48.072;7.800;2024-03-02T03:16:49;2.20;99.90
2663;DHT22;49701;48.072;7.800;2024-03-02T03:19:15;2.20;99.90
2663;DHT22;49701;48.072;7.800;2024-03-02T03:21:41;2.20;99.90
2663;DHT22;49701;48.072;7.800;2024-03-02T03:24:08;2.20;99.90
2663;DHT22;49701;48.072;7.800;2024-03-02T03:26:35;2.20;99.90
2663;DHT22;49701;48.072;7.800;2024-03-02T03:29:01;2.20;99.90
2663;DHT22;49701;48.072;7.800;2024-03-02T03:31:28;2.20;99.90
2663;DHT22;49701;48.072;7.800;2024-03-02T03:33:53;2.20;99.90
2663;DHT22;49701;48.072;7.800;2024-03-02T03:36:19;2.10;99.90
2663;DHT22;49701;48.072;7.800;2024-03-02T03:38:44;2.10;99.90
2663;DHT22;49701;48.072;7.800;2024-03-02T03:41:10;2.00;99.90
2663;DHT22;49701;48.072;7.800;2024-03-02T03:43:35;2.00;99.90
2663;DHT22;49701;48.072;7.800;2024-03-02T03:46:01;2.00;99.90
2663;DHT22;49701;48.072;7.800;2024-03-02T03:48:27;2.00;99.90
2663;DHT22;49701;48.072;7.800;2024-03-02T03:50:56;1.90;99.90
2663;DHT22;49701;48.072;7.800;2024-03-02T03:53:21;1.90;99.90
2663;DHT22;49701;48.072;7.800;2024-03-02T03:55:47;2.00;99.90
2663;DHT22;49701;48.072;7.800;2024-03-02T03:58:15;2.00;99.90
2663;DHT22;49701;48.072;7.800;2024-03-02T04:00:42;2.00;99.90
2663;DHT22;49701;48.072;7.800;2024-03-02T04:03:07;2.00;99.90
2663;DHT22;49701;48.072;7.800;2024-03-02T04:05:33;2.00;99.90
2663;DHT22;49701;48.072;7.800;2024-03-02T04:07:58;1.90;99.90
2663;DHT22;49701;48.072;7.800;2024-03-02T04:10:24;1.90;99.90
2663;DHT22;49701;48.072;7.800;2024-03-02T04:12:49;1.90;99.90
2663;DHT22;49701;48.072;7.800;2024-03-02T04:15:16;1.90;99.90
2663;DHT22;49701;48.072;7.800;2024-03-02T04:17:41;1.90;99.90
2663;DHT22;49701;48.072;7.800;2024-03-02T04:20:07;2.00;99.90
2663;DHT22;49701;48.072;7.800;2024-03-02T04:22:33;1.90;99.90
2663;DHT22;49701;48.072;7.800;2024-03-02T04:24:59;2.00;99.90
2663;DHT22;49701;48.072;7.800;2024-03-02T04:27:25;2.00;99.90
2663;DHT22;49701;48.072;7.800;2024-03-02T04:29:51;1.90;99.90
2663;DHT22;49701;48.072;7.800;2024-03-02T04:32:17;1.90;99.90
2663;DHT22;49701;48.072;7.800;2024-03-02T04:34:42;1.90;99.90
2663;DHT22;49701;48.072;7.800;2024-03-02T04:37:08;2.00;99.90
2663;DHT22;49701;48.072;7.800;2024-03-02T04:39:35;2.00;99.90
2663;DHT22;49701;48.072;7.800;2024-03-02T04:42:00;1.90;99.90
2663;DHT22;49701;48.072;7.800;2024-03-02T04:44:26;1.90;99.90
2663;DHT22;49701;48.072;7.800;2024-03-02T04:46:52;1.90;99.90
2663;DHT22;49701;48.072;7.800;2024-03-02T04:49:17;1.90;99.90
2663;DHT22;49701;48.072;7.800;2024-03-02T04:51:43;1.90;99.90
2663;DHT22;49701;48.072;7.800;2024-03-02T04:54:08;2.00;99.90
2663;DHT22;49701;48.072;7.800;2024-03-02T04:56:34;2.00;99.90
2663;DHT22;49701;48.072;7.800;2024-03-02T04:59:10;2.00;99.90
2663;DHT22;49701;48.072;7.800;2024-03-02T05:01:35;2.00;99.90
2663;DHT22;49701;48.072;7.800;2024-03-02T05:04:01;2.00;99.90
2663;DHT22;49701;48.072;7.800;2024-03-02T05:06:26;2.10;99.90
2663;DHT22;49701;48.072;7.800;2024-03-02T05:08:52;2.10;99.90
2663;DHT22;49701;48.072;7.800;2024-03-02T05:11:17;2.20;99.90
2663;DHT22;49701;48.072;7.800;2024-03-02T05:14:01;2.20;99.90
2663;DHT22;49701;48.072;7.800;2024-03-02T05:16:27;2.20;99.90
2663;DHT22;49701;48.072;7.800;2024-03-02T05:18:52;2.20;99.90
2663;DHT22;49701;48.072;7.800;2024-03-02T05:21:18;2.20;99.90
2663;DHT22;49701;48.072;7.800;2024-03-02T05:23:43;2.20;99.90
2663;DHT22;49701;48.072;7.800;2024-03-02T05:26:09;2.20;99.90
2663;DHT22;49701;48.072;7.800;2024-03-02T05:28:38;2.20;99.90
2663;DHT22;49701;48.072;7.800;2024-03-02T05:31:04;2.20;99.90
2663;DHT22;49701;48.072;7.800;2024-03-02T05:33:30;2.20;99.90
2663;DHT22;49701;48.072;7.800;2024-03-02T05:35:57;2.20;99.90
2663;DHT22;49701;48.072;7.800;2024-03-02T05:38:22;2.20;99.90
2663;DHT22;49701;48.072;7.800;2024-03-02T05:40:48;2.20;99.90
2663;DHT22;49701;48.072;7.800;2024-03-02T05:43:13;2.20;99.90
2663;DHT22;49701;48.072;7.800;2024-03-02T05:45:39;2.30;99.90
2663;DHT22;49701;48.072;7.800;2024-03-02T05:48:07;2.30;99.90
2663;DHT22;49701;48.072;7.800;2024-03-02T05:50:33;2.40;99.90
2663;DHT22;49701;48.072;7.800;2024-03-02T05:52:59;2.40;99.90
2663;DHT22;49701;48.072;7.800;2024-03-02T05:55:24;2.50;99.90
2663;DHT22;49701;48.072;7.800;2024-03-02T05:57:50;2.50;99.90
2663;DHT22;49701;48.072;7.800;2024-03-02T06:00:42;2.60;99.90
2663;DHT22;49701;48.072;7.800;2024-03-02T06:03:08;2.60;99.90
2663;DHT22;49701;48.072;7.800;2024-03-02T06:05:34;2.60;99.90
2663;DHT22;49701;48.072;7.800;2024-03-02T06:08:00;2.60;99.90
2663;DHT22;49701;48.072;7.800;2024-03-02T06:10:25;2.60;99.90
2663;DHT22;49701;48.072;7.800;2024-03-02T06:12:51;2.70;99.90
2663;DHT22;49701;48.072;7.800;2024-03-02T06:15:16;2.70;99.90
2663;DHT22;49701;48.072;7.800;2024-03-02T06:17:42;2.70;99.90
2663;DHT22;49701;48.072;7.800;2024-03-02T06:20:08;2.70;99.90
2663;DHT22;49701;48.072;7.800;2024-03-02T06:22:34;2.60;99.90
2663;DHT22;49701;48.072;7.800;2024-03-02T06:25:00;2.60;99.90
2663;DHT22;49701;48.072;7.800;2024-03-02T06:27:25;2.70;99.90
2663;DHT22;49701;48.072;7.800;2024-03-02T06:29:51;2.70;99.90
2663;DHT22;49701;48.072;7.800;2024-03-02T06:32:17;2.70;99.90
2663;DHT22;49701;48.072;7.800;2024-03-02T06:34:42;2.80;99.90
2663;DHT22;49701;48.072;7.800;2024-03-02T06:37:08;2.80;99.90
2663;DHT22;49701;48.072;7.800;2024-03-02T06:39:33;2.90;99.90
2663;DHT22;49701;48.072;7.800;2024-03-02T06:42:02;2.90;99.90
2663;DHT22;49701;48.072;7.800;2024-03-02T06:44:28;3.10;99.90
2663;DHT22;49701;48.072;7.800;2024-03-02T06:46:54;3.30;99.90
2663;DHT22;49701;48.072;7.800;2024-03-02T06:49:19;3.40;99.90
2663;DHT22;49701;48.072;7.800;2024-03-02T06:51:45;3.50;99.90
2663;DHT22;49701;48.072;7.800;2024-03-02T06:54:10;3.70;99.90
2663;DHT22;49701;48.072;7.800;2024-03-02T06:56:36;4.00;99.90
2663;DHT22;49701;48.072;7.800;2024-03-02T06:59:02;4.30;99.90
2663;DHT22;49701;48.072;7.800;2024-03-02T07:01:28;4.60;99.90
2663;DHT22;49701;48.072;7.800;2024-03-02T07:03:53;4.70;99.90
2663;DHT22;49701;48.072;7.800;2024-03-02T07:06:19;4.70;99.90
2663;DHT22;49701;48.072;7.800;2024-03-02T07:08:45;4.70;99.90
2663;DHT22;49701;48.072;7.800;2024-03-02T07:11:10;4.90;99.90
2663;DHT22;49701;48.072;7.800;2024-03-02T07:13:36;5.10;99.90
2663;DHT22;49701;48.072;7.800;2024-03-02T07:16:01;5.30;99.90
2663;DHT22;49701;48.072;7.800;2024-03-02T07:18:36;5.30;99.90
2663;DHT22;49701;48.072;7.800;2024-03-02T07:21:16;5.50;99.90
2663;DHT22;49701;48.072;7.800;2024-03-02T07:23:42;5.60;99.90
2663;DHT22;49701;48.072;7.800;2024-03-02T07:26:07;5.70;99.90
2663;DHT22;49701;48.072;7.800;2024-03-02T07:28:33;5.80;99.90
2663;DHT22;49701;48.072;7.800;2024-03-02T07:31:01;6.00;99.90
2663;DHT22;49701;48.072;7.800;2024-03-02T07:33:27;6.10;99.90
2663;DHT22;49701;48.072;7.800;2024-03-02T07:35:56;6.30;99.90
2663;DHT22;49701;48.072;7.800;2024-03-02T07:38:22;6.40;99.90
2663;DHT22;49701;48.072;7.800;2024-03-02T07:40:48;6.60;99.90
2663;DHT22;49701;48.072;7.800;2024-03-02T07:43:16;6.60;99.90
2663;DHT22;49701;48.072;7.800;2024-03-02T07:45:42;6.70;99.90
2663;DHT22;49701;48.072;7.800;2024-03-02T07:48:07;6.90;99.90
2663;DHT22;49701;48.072;7.800;2024-03-02T07:50:33;6.90;99.90
2663;DHT22;49701;48.072;7.800;2024-03-02T07:53:00;7.10;99.90
2663;DHT22;49701;48.072;7.800;2024-03-02T07:55:26;7.30;99.90
2663;DHT22;49701;48.072;7.800;2024-03-02T07:57:51;7.50;99.90
2663;DHT22;49701;48.072;7.800;2024-03-02T08:00:17;7.70;99.90
2663;DHT22;49701;48.072;7.800;2024-03-02T08:02:43;7.90;99.90
2663;DHT22;49701;48.072;7.800;2024-03-02T08:05:08;8.20;99.90
2663;DHT22;49701;48.072;7.800;2024-03-02T08:07:34;8.40;99.90
2663;DHT22;49701;48.072;7.800;2024-03-02T08:10:00;8.60;99.90
2663;DHT22;49701;48.072;7.800;2024-03-02T08:12:25;8.90;99.90
2663;DHT22;49701;48.072;7.800;2024-03-02T08:14:51;9.20;99.90
2663;DHT22;49701;48.072;7.800;2024-03-02T08:17:16;9.50;99.90
2663;DHT22;49701;48.072;7.800;2024-03-02T08:19:42;9.80;99.90
2663;DHT22;49701;48.072;7.800;2024-03-02T08:22:09;10.00;99.90
2663;DHT22;49701;48.072;7.800;2024-03-02T08:24:35;10.30;99.90
2663;DHT22;49701;48.072;7.800;2024-03-02T08:27:01;10.70;99.90
2663;DHT22;49701;48.072;7.800;2024-03-02T08:29:26;11.10;99.90
2663;DHT22;49701;48.072;7.800;2024-03-02T08:31:52;11.50;99.90
2663;DHT22;49701;48.072;7.800;2024-03-02T08:34:18;11.90;99.90
2663;DHT22;49701;48.072;7.800;2024-03-02T08:36:43;12.40;99.90
2663;DHT22;49701;48.072;7.800;2024-03-02T08:39:09;12.80;99.90
2663;DHT22;49701;48.072;7.800;2024-03-02T08:41:46;13.20;99.90
2663;DHT22;49701;48.072;7.800;2024-03-02T08:44:12;13.40;99.90
2663;DHT22;49701;48.072;7.800;2024-03-02T08:46:38;13.80;99.90
2663;DHT22;49701;48.072;7.800;2024-03-02T08:49:04;14.10;99.90
2663;DHT22;49701;48.072;7.800;2024-03-02T08:51:29;14.40;99.90
2663;DHT22;49701;48.072;7.800;2024-03-02T08:53:55;14.80;99.90
2663;DHT22;49701;48.072;7.800;2024-03-02T08:56:21;15.20;99.90
2663;DHT22;49701;48.072;7.800;2024-03-02T08:58:49;15.70;99.90
2663;DHT22;49701;48.072;7.800;2024-03-02T09:01:15;16.00;99.90
2663;DHT22;49701;48.072;7.800;2024-03-02T09:03:41;16.30;99.90
2663;DHT22;49701;48.072;7.800;2024-03-02T09:06:06;16.60;99.90
2663;DHT22;49701;48.072;7.800;2024-03-02T09:08:32;17.00;99.90
2663;DHT22;49701;48.072;7.800;2024-03-02T09:10:57;17.30;99.90
2663;DHT22;49701;48.072;7.800;2024-03-02T09:13:23;17.50;99.90
2663;DHT22;49701;48.072;7.800;2024-03-02T09:15:49;17.80;99.90
2663;DHT22;49701;48.072;7.800;2024-03-02T09:18:14;18.00;99.90
2663;DHT22;49701;48.072;7.800;2024-03-02T09:20:40;18.30;99.90
2663;DHT22;49701;48.072;7.800;2024-03-02T09:23:06;18.40;99.90
2663;DHT22;49701;48.072;7.800;2024-03-02T09:25:32;18.20;99.90
2663;DHT22;49701;48.072;7.800;2024-03-02T09:27:57;18.30;99.90
2663;DHT22;49701;48.072;7.800;2024-03-02T09:30:23;18.60;99.90
2663;DHT22;49701;48.072;7.800;2024-03-02T09:32:48;18.90;99.90
2663;DHT22;49701;48.072;7.800;2024-03-02T09:35:14;18.70;99.90
2663;DHT22;49701;48.072;7.800;2024-03-02T09:37:39;18.30;99.90
2663;DHT22;49701;48.072;7.800;2024-03-02T09:40:05;18.30;99.90
2663;DHT22;49701;48.072;7.800;2024-03-02T09:42:31;18.50;99.90
2663;DHT22;49701;48.072;7.800;2024-03-02T09:44:57;18.50;99.90
2663;DHT22;49701;48.072;7.800;2024-03-02T09:47:23;18.60;99.90
2663;DHT22;49701;48.072;7.800;2024-03-02T09:49:49;18.80;99.90
2663;DHT22;49701;48.072;7.800;2024-03-02T09:52:14;19.20;99.90
2663;DHT22;49701;48.072;7.800;2024-03-02T09:54:40;19.60;99.90
2663;DHT22;49701;48.072;7.800;2024-03-02T09:57:06;19.70;99.90
2663;DHT22;49701;48.072;7.800;2024-03-02T09:59:31;19.90;99.90
2663;DHT22;49701;48.072;7.800;2024-03-02T10:02:00;20.10;99.10
2663;DHT22;49701;48.072;7.800;2024-03-02T10:04:27;20.50;98.60
2663;DHT22;49701;48.072;7.800;2024-03-02T10:07:26;20.90;97.60
2663;DHT22;49701;48.072;7.800;2024-03-02T10:09:48;21.10;96.70
2663;DHT22;49701;48.072;7.800;2024-03-02T10:12:15;21.00;95.80
2663;DHT22;49701;48.072;7.800;2024-03-02T10:14:41;21.10;95.40
2663;DHT22;49701;48.072;7.800;2024-03-02T10:17:07;21.50;94.30
2663;DHT22;49701;48.072;7.800;2024-03-02T10:19:33;21.80;93.80
2663;DHT22;49701;48.072;7.800;2024-03-02T10:22:03;21.80;93.20
2663;DHT22;49701;48.072;7.800;2024-03-02T10:24:36;21.60;93.10
2663;DHT22;49701;48.072;7.800;2024-03-02T10:27:06;21.40;93.00
2663;DHT22;49701;48.072;7.800;2024-03-02T10:29:32;21.60;91.60
2663;DHT22;49701;48.072;7.800;2024-03-02T10:31:57;21.60;91.00
2663;DHT22;49701;48.072;7.800;2024-03-02T10:34:24;21.50;90.80
2663;DHT22;49701;48.072;7.800;2024-03-02T10:36:50;21.10;90.70
2663;DHT22;49701;48.072;7.800;2024-03-02T10:39:16;20.90;90.60
2663;DHT22;49701;48.072;7.800;2024-03-02T10:41:42;20.90;90.30
2663;DHT22;49701;48.072;7.800;2024-03-02T10:44:09;20.90;88.50
2663;DHT22;49701;48.072;7.800;2024-03-02T10:46:35;20.60;88.90
2663;DHT22;49701;48.072;7.800;2024-03-02T10:49:02;20.60;88.70
2663;DHT22;49701;48.072;7.800;2024-03-02T10:51:32;20.60;87.80
2663;DHT22;49701;48.072;7.800;2024-03-02T10:53:58;20.90;87.80
2663;DHT22;49701;48.072;7.800;2024-03-02T10:56:42;20.70;86.60
2663;DHT22;49701;48.072;7.800;2024-03-02T11:01:35;20.00;89.60
2663;DHT22;49701;48.072;7.800;2024-03-02T11:04:04;20.20;89.60
2663;DHT22;49701;48.072;7.800;2024-03-02T11:06:29;20.40;88.80
2663;DHT22;49701;48.072;7.800;2024-03-02T11:08:59;20.60;89.20
2663;DHT22;49701;48.072;7.800;2024-03-02T11:11:29;20.70;87.90
2663;DHT22;49701;48.072;7.800;2024-03-02T11:14:01;20.90;85.90
2663;DHT22;49701;48.072;7.800;2024-03-02T11:16:36;21.00;86.40
2663;DHT22;49701;48.072;7.800;2024-03-02T11:19:06;21.00;83.60
2663;DHT22;49701;48.072;7.800;2024-03-02T11:21:35;20.70;84.30
2663;DHT22;49701;48.072;7.800;2024-03-02T11:26:45;21.00;84.80
2663;DHT22;49701;48.072;7.800;2024-03-02T11:29:21;21.10;84.90
2663;DHT22;49701;48.072;7.800;2024-03-02T11:31:59;21.30;83.20
2663;DHT22;49701;48.072;7.800;2024-03-02T11:34:29;21.70;82.80
2663;DHT22;49701;48.072;7.800;2024-03-02T11:36:54;22.00;80.50
2663;DHT22;49701;48.072;7.800;2024-03-02T11:39:20;21.80;80.30
2663;DHT22;49701;48.072;7.800;2024-03-02T11:41:46;21.50;81.10
2663;DHT22;49701;48.072;7.800;2024-03-02T11:44:11;21.30;81.30
2663;DHT22;49701;48.072;7.800;2024-03-02T11:46:39;21.30;82.30
2663;DHT22;49701;48.072;7.800;2024-03-02T11:49:04;21.60;81.30
2663;DHT22;49701;48.072;7.800;2024-03-02T11:51:32;22.10;79.60
2663;DHT22;49701;48.072;7.800;2024-03-02T11:53:58;22.30;77.20
2663;DHT22;49701;48.072;7.800;2024-03-02T11:56:25;22.70;77.20
2663;DHT22;49701;48.072;7.800;2024-03-02T11:58:53;23.40;75.30
2663;DHT22;49701;48.072;7.800;2024-03-02T12:01:18;24.00;73.30
2663;DHT22;49701;48.072;7.800;2024-03-02T12:03:45;24.20;72.00
2663;DHT22;49701;48.072;7.800;2024-03-02T12:06:11;24.50;70.30
2663;DHT22;49701;48.072;7.800;2024-03-02T12:08:38;24.70;69.40
2663;DHT22;49701;48.072;7.800;2024-03-02T12:11:04;24.50;67.90
2663;DHT22;49701;48.072;7.800;2024-03-02T12:13:31;24.10;67.30
2663;DHT22;49701;48.072;7.800;2024-03-02T12:15:58;24.10;67.80
2663;DHT22;49701;48.072;7.800;2024-03-02T12:18:24;24.10;67.40
2663;DHT22;49701;48.072;7.800;2024-03-02T12:20:50;24.10;66.10
2663;DHT22;49701;48.072;7.800;2024-03-02T12:23:22;23.70;66.50
2663;DHT22;49701;48.072;7.800;2024-03-02T12:25:48;22.90;68.20
2663;DHT22;49701;48.072;7.800;2024-03-02T12:28:13;22.00;69.00
2663;DHT22;49701;48.072;7.800;2024-03-02T12:30:39;21.30;70.70
2663;DHT22;49701;48.072;7.800;2024-03-02T12:33:05;21.00;71.50
2663;DHT22;49701;48.072;7.800;2024-03-02T12:35:31;21.30;71.20
2663;DHT22;49701;48.072;7.800;2024-03-02T12:37:57;21.80;70.60
2663;DHT22;49701;48.072;7.800;2024-03-02T12:40:23;22.30;69.70
2663;DHT22;49701;48.072;7.800;2024-03-02T12:42:49;22.70;68.00
2663;DHT22;49701;48.072;7.800;2024-03-02T12:45:15;23.10;67.60
2663;DHT22;49701;48.072;7.800;2024-03-02T12:47:42;23.70;66.90
2663;DHT22;49701;48.072;7.800;2024-03-02T12:50:08;23.80;65.00
2663;DHT22;49701;48.072;7.800;2024-03-02T12:52:34;23.60;66.30
2663;DHT22;49701;48.072;7.800;2024-03-02T12:55:00;24.20;64.90
2663;DHT22;49701;48.072;7.800;2024-03-02T12:57:26;24.70;64.00
2663;DHT22;49701;48.072;7.800;2024-03-02T13:00:01;25.10;62.30
2663;DHT22;49701;48.072;7.800;2024-03-02T13:02:27;25.50;61.00
2663;DHT22;49701;48.072;7.800;2024-03-02T13:04:53;25.40;61.30
2663;DHT22;49701;48.072;7.800;2024-03-02T13:07:23;25.80;60.10
2663;DHT22;49701;48.072;7.800;2024-03-02T13:09:49;26.20;59.30
2663;DHT22;49701;48.072;7.800;2024-03-02T13:12:15;26.30;59.80
2663;DHT22;49701;48.072;7.800;2024-03-02T13:14:42;26.50;59.30
2663;DHT22;49701;48.072;7.800;2024-03-02T13:17:08;26.50;59.00
2663;DHT22;49701;48.072;7.800;2024-03-02T13:19:34;26.70;59.40
2663;DHT22;49701;48.072;7.800;2024-03-02T13:21:59;26.80;59.80
2663;DHT22;49701;48.072;7.800;2024-03-02T13:24:27;27.00;58.80
2663;DHT22;49701;48.072;7.800;2024-03-02T13:26:55;27.10;57.90
2663;DHT22;49701;48.072;7.800;2024-03-02T13:29:22;27.00;57.20
2663;DHT22;49701;48.072;7.800;2024-03-02T13:31:48;26.90;57.10
2663;DHT22;49701;48.072;7.800;2024-03-02T13:34:14;26.90;57.00
2663;DHT22;49701;48.072;7.800;2024-03-02T13:36:39;26.90;57.90
2663;DHT22;49701;48.072;7.800;2024-03-02T13:39:05;26.90;57.80
2663;DHT22;49701;48.072;7.800;2024-03-02T13:41:31;26.50;59.10
2663;DHT22;49701;48.072;7.800;2024-03-02T13:43:57;26.20;58.70
2663;DHT22;49701;48.072;7.800;2024-03-02T13:46:26;25.70;58.40
2663;DHT22;49701;48.072;7.800;2024-03-02T13:48:52;24.80;61.20
2663;DHT22;49701;48.072;7.800;2024-03-02T13:51:18;24.10;62.50
2663;DHT22;49701;48.072;7.800;2024-03-02T13:53:43;23.70;64.10
2663;DHT22;49701;48.072;7.800;2024-03-02T13:56:09;23.30;64.80
2663;DHT22;49701;48.072;7.800;2024-03-02T13:58:35;23.10;65.60
2663;DHT22;49701;48.072;7.800;2024-03-02T14:01:01;22.90;66.60
2663;DHT22;49701;48.072;7.800;2024-03-02T14:03:30;22.60;66.70
2663;DHT22;49701;48.072;7.800;2024-03-02T14:05:55;22.20;68.00
2663;DHT22;49701;48.072;7.800;2024-03-02T14:08:21;21.90;69.30
2663;DHT22;49701;48.072;7.800;2024-03-02T14:10:47;21.70;70.30
2663;DHT22;49701;48.072;7.800;2024-03-02T14:13:12;21.30;70.80
2663;DHT22;49701;48.072;7.800;2024-03-02T14:15:38;20.90;72.00
2663;DHT22;49701;48.072;7.800;2024-03-02T14:18:05;20.60;71.70
2663;DHT22;49701;48.072;7.800;2024-03-02T14:20:31;20.00;73.10
2663;DHT22;49701;48.072;7.800;2024-03-02T14:22:58;19.40;74.80
2663;DHT22;49701;48.072;7.800;2024-03-02T14:25:24;18.80;76.30
2663;DHT22;49701;48.072;7.800;2024-03-02T14:27:50;18.50;77.70
2663;DHT22;49701;48.072;7.800;2024-03-02T14:30:16;18.20;79.30
2663;DHT22;49701;48.072;7.800;2024-03-02T14:32:42;18.20;79.90
2663;DHT22;49701;48.072;7.800;2024-03-02T14:35:07;18.40;80.60
2663;DHT22;49701;48.072;7.800;2024-03-02T14:37:36;18.50;80.40
2663;DHT22;49701;48.072;7.800;2024-03-02T14:40:02;18.60;80.70
2663;DHT22;49701;48.072;7.800;2024-03-02T14:42:28;18.70;81.00
2663;DHT22;49701;48.072;7.800;2024-03-02T14:44:56;18.80;80.80
2663;DHT22;49701;48.072;7.800;2024-03-02T14:47:22;18.80;81.00
2663;DHT22;49701;48.072;7.800;2024-03-02T14:49:48;18.70;80.50
2663;DHT22;49701;48.072;7.800;2024-03-02T14:52:13;18.70;80.40
2663;DHT22;49701;48.072;7.800;2024-03-02T14:54:39;18.70;79.80
2663;DHT22;49701;48.072;7.800;2024-03-02T14:57:05;18.70;79.50
2663;DHT22;49701;48.072;7.800;2024-03-02T14:59:30;18.70;79.70
2663;DHT22;49701;48.072;7.800;2024-03-02T15:01:56;18.70;79.60
2663;DHT22;49701;48.072;7.800;2024-03-02T15:04:22;18.70;79.60
2663;DHT22;49701;48.072;7.800;2024-03-02T15:06:48;18.60;79.60
2663;DHT22;49701;48.072;7.800;2024-03-02T15:09:13;18.60;80.20
2663;DHT22;49701;48.072;7.800;2024-03-02T15:11:39;18.60;80.90
2663;DHT22;49701;48.072;7.800;2024-03-02T15:14:05;18.50;81.30
2663;DHT22;49701;48.072;7.800;2024-03-02T15:16:30;18.50;81.00
2663;DHT22;49701;48.072;7.800;2024-03-02T15:18:56;18.50;81.10
2663;DHT22;49701;48.072;7.800;2024-03-02T15:21:21;18.40;81.20
2663;DHT22;49701;48.072;7.800;2024-03-02T15:23:47;18.30;80.80
2663;DHT22;49701;48.072;7.800;2024-03-02T15:26:13;18.30;81.20
2663;DHT22;49701;48.072;7.800;2024-03-02T15:28:38;18.30;81.70
2663;DHT22;49701;48.072;7.800;2024-03-02T15:31:04;18.40;81.90
2663;DHT22;49701;48.072;7.800;2024-03-02T15:33:30;18.50;81.80
2663;DHT22;49701;48.072;7.800;2024-03-02T15:35:59;18.70;81.60
2663;DHT22;49701;48.072;7.800;2024-03-02T15:38:26;18.90;80.70
2663;DHT22;49701;48.072;7.800;2024-03-02T15:40:52;19.20;79.40
2663;DHT22;49701;48.072;7.800;2024-03-02T15:43:17;19.50;79.00
2663;DHT22;49701;48.072;7.800;2024-03-02T15:45:43;20.00;77.70
2663;DHT22;49701;48.072;7.800;2024-03-02T15:48:08;20.30;76.80
2663;DHT22;49701;48.072;7.800;2024-03-02T15:50:34;20.20;77.10
2663;DHT22;49701;48.072;7.800;2024-03-02T15:53:01;20.00;77.50
2663;DHT22;49701;48.072;7.800;2024-03-02T15:55:29;19.80;78.30
2663;DHT22;49701;48.072;7.800;2024-03-02T15:57:55;19.70;77.70